sensor_id;sensor_type;location;lat;lon;timestamp;P1;durP1;ratioP1;P2;durP2;ratioP2
4391;SDS011;2210;51.938;8.488;2023-10-13T00:03:44;8.60;;;6.97;;
4391;SDS011;2210;51.938;8.488;2023-10-13T00:07:44;9.63;;;7.27;;
4391;SDS011;2210;51.938;8.488;2023-10-13T00:11:44;9.07;;;7.63;;
4391;SDS011;2210;51.938;8.488;2023-10-13T00:15:45;10.23;;;6.90;;
4391;SDS011;2210;51.938;8.488;2023-10-13T00:19:59;8.53;;;6.93;;
4391;SDS011;2210;51.938;8.488;2023-10-13T00:24:00;8.50;;;6.87;;
4391;SDS011;2210;51.938;8.488;2023-10-13T00:28:16;10.63;;;7.33;;
4391;SDS011;2210;51.938;8.488;2023-10-13T00:32:23;9.30;;;6.90;;
4391;SDS011;2210;51.938;8.488;2023-10-13T00:36:30;7.57;;;6.87;;
4391;SDS011;2210;51.938;8.488;2023-10-13T00:40:34;11.03;;;7.73;;
4391;SDS011;2210;51.938;8.488;2023-10-13T00:44:37;11.30;;;8.60;;
4391;SDS011;2210;51.938;8.488;2023-10-13T00:48:42;9.87;;;7.13;;
4391;SDS011;2210;51.938;8.488;2023-10-13T00:52:45;12.43;;;7.90;;
4391;SDS011;2210;51.938;8.488;2023-10-13T00:56:50;10.83;;;8.00;;
4391;SDS011;2210;51.938;8.488;2023-10-13T01:01:04;10.17;;;8.10;;
4391;SDS011;2210;51.938;8.488;2023-10-13T01:05:28;10.27;;;8.00;;
4391;SDS011;2210;51.938;8.488;2023-10-13T01:09:31;12.47;;;8.10;;
4391;SDS011;2210;51.938;8.488;2023-10-13T01:13:42;13.73;;;8.50;;
4391;SDS011;2210;51.938;8.488;2023-10-13T01:17:42;10.77;;;7.83;;
4391;SDS011;2210;51.938;8.488;2023-10-13T01:21:45;11.30;;;9.83;;
4391;SDS011;2210;51.938;8.488;2023-10-13T01:25:56;12.60;;;9.20;;
4391;SDS011;2210;51.938;8.488;2023-10-13T01:29:57;10.20;;;8.40;;
4391;SDS011;2210;51.938;8.488;2023-10-13T01:34:08;12.43;;;8.37;;
4391;SDS011;2210;51.938;8.488;2023-10-13T01:38:09;10.40;;;8.57;;
4391;SDS011;2210;51.938;8.488;2023-10-13T01:42:09;16.17;;;9.00;;
4391;SDS011;2210;51.938;8.488;2023-10-13T01:46:14;13.70;;;9.17;;
4391;SDS011;2210;51.938;8.488;2023-10-13T01:50:15;12.77;;;8.90;;
4391;SDS011;2210;51.938;8.488;2023-10-13T01:54:24;12.43;;;8.60;;
4391;SDS011;2210;51.938;8.488;2023-10-13T01:58:24;13.10;;;8.50;;
4391;SDS011;2210;51.938;8.488;2023-10-13T02:02:29;10.70;;;8.43;;
4391;SDS011;2210;51.938;8.488;2023-10-13T02:06:30;12.57;;;8.70;;
4391;SDS011;2210;51.938;8.488;2023-10-13T02:10:36;10.97;;;8.50;;
4391;SDS011;2210;51.938;8.488;2023-10-13T02:14:43;11.43;;;8.40;;
4391;SDS011;2210;51.938;8.488;2023-10-13T02:18:44;13.43;;;9.20;;
4391;SDS011;2210;51.938;8.488;2023-10-13T02:22:51;15.00;;;9.53;;
4391;SDS011;2210;51.938;8.488;2023-10-13T02:26:52;15.67;;;9.70;;
4391;SDS011;2210;51.938;8.488;2023-10-13T02:30:52;15.33;;;8.90;;
4391;SDS011;2210;51.938;8.488;2023-10-13T02:34:53;12.57;;;9.03;;
4391;SDS011;2210;51.938;8.488;2023-10-13T02:39:00;14.20;;;9.10;;
4391;SDS011;2210;51.938;8.488;2023-10-13T02:43:07;12.27;;;10.20;;
4391;SDS011;2210;51.938;8.488;2023-10-13T02:47:07;12.60;;;8.70;;
4391;SDS011;2210;51.938;8.488;2023-10-13T02:51:19;11.20;;;9.70;;
4391;SDS011;2210;51.938;8.488;2023-10-13T02:55:25;11.30;;;8.60;;
4391;SDS011;2210;51.938;8.488;2023-10-13T02:59:30;19.40;;;9.50;;
4391;SDS011;2210;51.938;8.488;2023-10-13T03:03:34;13.83;;;9.30;;
4391;SDS011;2210;51.938;8.488;2023-10-13T03:07:34;11.30;;;9.33;;
4391;SDS011;2210;51.938;8.488;2023-10-13T03:11:36;9.90;;;8.87;;
4391;SDS011;2210;51.938;8.488;2023-10-13T03:15:39;10.63;;;9.23;;
4391;SDS011;2210;51.938;8.488;2023-10-13T03:19:43;10.30;;;8.23;;
4391;SDS011;2210;51.938;8.488;2023-10-13T03:23:57;16.63;;;9.40;;
4391;SDS011;2210;51.938;8.488;2023-10-13T03:28:09;12.63;;;9.43;;
4391;SDS011;2210;51.938;8.488;2023-10-13T03:32:16;17.63;;;9.37;;
4391;SDS011;2210;51.938;8.488;2023-10-13T03:36:17;12.40;;;9.00;;
4391;SDS011;2210;51.938;8.488;2023-10-13T03:40:40;13.10;;;8.37;;
4391;SDS011;2210;51.938;8.488;2023-10-13T03:44:40;14.10;;;9.33;;
4391;SDS011;2210;51.938;8.488;2023-10-13T03:48:40;14.63;;;8.87;;
4391;SDS011;2210;51.938;8.488;2023-10-13T03:52:52;11.00;;;9.00;;
4391;SDS011;2210;51.938;8.488;2023-10-13T03:56:57;13.80;;;9.13;;
4391;SDS011;2210;51.938;8.488;2023-10-13T04:01:04;12.23;;;8.97;;
4391;SDS011;2210;51.938;8.488;2023-10-13T04:05:05;12.17;;;8.40;;
4391;SDS011;2210;51.938;8.488;2023-10-13T04:09:38;13.93;;;9.77;;
4391;SDS011;2210;51.938;8.488;2023-10-13T04:13:48;10.40;;;8.07;;
4391;SDS011;2210;51.938;8.488;2023-10-13T04:18:23;10.60;;;8.07;;
4391;SDS011;2210;51.938;8.488;2023-10-13T04:22:42;10.63;;;9.00;;
4391;SDS011;2210;51.938;8.488;2023-10-13T04:26:47;9.07;;;7.90;;
4391;SDS011;2210;51.938;8.488;2023-10-13T04:31:07;10.50;;;7.80;;
4391;SDS011;2210;51.938;8.488;2023-10-13T04:35:28;11.63;;;8.23;;
4391;SDS011;2210;51.938;8.488;2023-10-13T04:39:35;11.83;;;8.40;;
4391;SDS011;2210;51.938;8.488;2023-10-13T04:43:41;8.33;;;7.23;;
4391;SDS011;2210;51.938;8.488;2023-10-13T04:47:57;11.00;;;7.87;;
4391;SDS011;2210;51.938;8.488;2023-10-13T04:52:14;8.40;;;7.43;;
4391;SDS011;2210;51.938;8.488;2023-10-13T04:56:27;6.47;;;5.70;;
4391;SDS011;2210;51.938;8.488;2023-10-13T05:00:42;12.00;;;7.07;;
4391;SDS011;2210;51.938;8.488;2023-10-13T05:05:14;8.10;;;5.53;;
4391;SDS011;2210;51.938;8.488;2023-10-13T05:09:17;10.43;;;6.23;;
4391;SDS011;2210;51.938;8.488;2023-10-13T05:13:36;6.60;;;5.50;;
4391;SDS011;2210;51.938;8.488;2023-10-13T05:17:55;7.73;;;5.80;;
4391;SDS011;2210;51.938;8.488;2023-10-13T05:22:14;7.27;;;6.30;;
4391;SDS011;2210;51.938;8.488;2023-10-13T05:26:33;9.03;;;6.03;;
4391;SDS011;2210;51.938;8.488;2023-10-13T05:30:52;12.93;;;6.67;;
4391;SDS011;2210;51.938;8.488;2023-10-13T05:35:11;10.50;;;6.53;;
4391;SDS011;2210;51.938;8.488;2023-10-13T05:39:31;8.90;;;6.10;;
4391;SDS011;2210;51.938;8.488;2023-10-13T05:43:50;6.13;;;5.10;;
4391;SDS011;2210;51.938;8.488;2023-10-13T05:48:09;5.50;;;4.73;;
4391;SDS011;2210;51.938;8.488;2023-10-13T05:52:14;5.60;;;5.00;;
4391;SDS011;2210;51.938;8.488;2023-10-13T05:56:40;6.30;;;4.67;;
4391;SDS011;2210;51.938;8.488;2023-10-13T06:01:06;6.77;;;4.63;;
4391;SDS011;2210;51.938;8.488;2023-10-13T06:05:30;9.27;;;4.80;;
4391;SDS011;2210;51.938;8.488;2023-10-13T06:09:49;6.63;;;5.00;;
4391;SDS011;2210;51.938;8.488;2023-10-13T06:14:15;5.80;;;5.20;;
4391;SDS011;2210;51.938;8.488;2023-10-13T06:18:34;5.00;;;4.50;;
4391;SDS011;2210;51.938;8.488;2023-10-13T06:22:53;11.13;;;6.20;;
4391;SDS011;2210;51.938;8.488;2023-10-13T06:27:12;14.97;;;6.00;;
4391;SDS011;2210;51.938;8.488;2023-10-13T06:31:31;6.07;;;5.17;;
4391;SDS011;2210;51.938;8.488;2023-10-13T06:35:35;5.30;;;4.10;;
4391;SDS011;2210;51.938;8.488;2023-10-13T06:39:38;6.73;;;5.20;;
4391;SDS011;2210;51.938;8.488;2023-10-13T06:43:39;8.13;;;4.90;;
4391;SDS011;2210;51.938;8.488;2023-10-13T06:47:40;5.00;;;4.27;;
4391;SDS011;2210;51.938;8.488;2023-10-13T06:51:44;7.30;;;5.03;;
4391;SDS011;2210;51.938;8.488;2023-10-13T06:55:46;8.17;;;5.20;;
4391;SDS011;2210;51.938;8.488;2023-10-13T06:59:48;11.70;;;4.97;;
4391;SDS011;2210;51.938;8.488;2023-10-13T07:03:49;5.83;;;4.23;;
4391;SDS011;2210;51.938;8.488;2023-10-13T07:07:53;7.30;;;4.40;;
4391;SDS011;2210;51.938;8.488;2023-10-13T07:11:58;6.20;;;4.00;;
4391;SDS011;2210;51.938;8.488;2023-10-13T07:16:02;6.80;;;4.47;;
4391;SDS011;2210;51.938;8.488;2023-10-13T07:20:15;6.23;;;4.40;;
4391;SDS011;2210;51.938;8.488;2023-10-13T07:24:19;8.00;;;4.37;;
4391;SDS011;2210;51.938;8.488;2023-10-13T07:28:22;4.87;;;3.63;;
4391;SDS011;2210;51.938;8.488;2023-10-13T07:32:23;4.83;;;3.50;;
4391;SDS011;2210;51.938;8.488;2023-10-13T07:36:26;3.80;;;3.40;;
4391;SDS011;2210;51.938;8.488;2023-10-13T07:40:33;5.13;;;3.87;;
4391;SDS011;2210;51.938;8.488;2023-10-13T07:44:33;7.03;;;3.63;;
4391;SDS011;2210;51.938;8.488;2023-10-13T07:48:34;5.00;;;2.97;;
4391;SDS011;2210;51.938;8.488;2023-10-13T07:52:39;5.83;;;3.00;;
4391;SDS011;2210;51.938;8.488;2023-10-13T07:56:58;3.40;;;3.00;;
4391;SDS011;2210;51.938;8.488;2023-10-13T08:00:59;4.57;;;3.63;;
4391;SDS011;2210;51.938;8.488;2023-10-13T08:05:00;4.10;;;3.30;;
4391;SDS011;2210;51.938;8.488;2023-10-13T08:09:00;4.40;;;3.13;;
4391;SDS011;2210;51.938;8.488;2023-10-13T08:13:08;4.57;;;3.37;;
4391;SDS011;2210;51.938;8.488;2023-10-13T08:17:12;4.63;;;3.20;;
4391;SDS011;2210;51.938;8.488;2023-10-13T08:21:13;4.60;;;2.63;;
4391;SDS011;2210;51.938;8.488;2023-10-13T08:25:16;3.93;;;3.53;;
4391;SDS011;2210;51.938;8.488;2023-10-13T08:29:46;4.90;;;3.47;;
4391;SDS011;2210;51.938;8.488;2023-10-13T08:33:56;3.67;;;3.07;;
4391;SDS011;2210;51.938;8.488;2023-10-13T08:38:05;4.90;;;3.00;;
4391;SDS011;2210;51.938;8.488;2023-10-13T08:42:16;7.77;;;3.20;;
4391;SDS011;2210;51.938;8.488;2023-10-13T08:46:17;5.47;;;2.70;;
4391;SDS011;2210;51.938;8.488;2023-10-13T08:50:31;5.40;;;3.00;;
4391;SDS011;2210;51.938;8.488;2023-10-13T08:54:49;4.73;;;3.33;;
4391;SDS011;2210;51.938;8.488;2023-10-13T08:59:04;4.23;;;3.30;;
4391;SDS011;2210;51.938;8.488;2023-10-13T09:03:05;13.37;;;3.60;;
4391;SDS011;2210;51.938;8.488;2023-10-13T09:07:25;6.13;;;3.20;;
4391;SDS011;2210;51.938;8.488;2023-10-13T09:11:25;4.80;;;4.20;;
4391;SDS011;2210;51.938;8.488;2023-10-13T09:15:30;6.30;;;3.10;;
4391;SDS011;2210;51.938;8.488;2023-10-13T09:19:50;6.73;;;2.97;;
4391;SDS011;2210;51.938;8.488;2023-10-13T09:23:57;5.90;;;3.10;;
4391;SDS011;2210;51.938;8.488;2023-10-13T09:28:16;5.60;;;3.03;;
4391;SDS011;2210;51.938;8.488;2023-10-13T09:32:18;7.90;;;3.50;;
4391;SDS011;2210;51.938;8.488;2023-10-13T09:36:21;13.20;;;3.30;;
4391;SDS011;2210;51.938;8.488;2023-10-13T09:40:21;6.27;;;3.57;;
4391;SDS011;2210;51.938;8.488;2023-10-13T09:44:28;6.83;;;3.13;;
4391;SDS011;2210;51.938;8.488;2023-10-13T09:48:31;5.90;;;4.13;;
4391;SDS011;2210;51.938;8.488;2023-10-13T09:52:33;5.77;;;3.40;;
4391;SDS011;2210;51.938;8.488;2023-10-13T09:56:39;9.50;;;6.43;;
4391;SDS011;2210;51.938;8.488;2023-10-13T10:00:56;7.40;;;3.73;;
4391;SDS011;2210;51.938;8.488;2023-10-13T10:05:07;11.73;;;3.50;;
4391;SDS011;2210;51.938;8.488;2023-10-13T10:09:26;8.70;;;3.27;;
4391;SDS011;2210;51.938;8.488;2023-10-13T10:17:59;6.73;;;3.77;;
4391;SDS011;2210;51.938;8.488;2023-10-13T10:22:03;7.93;;;3.40;;
4391;SDS011;2210;51.938;8.488;2023-10-13T10:26:24;5.50;;;3.70;;
4391;SDS011;2210;51.938;8.488;2023-10-13T10:34:30;8.60;;;4.23;;
4391;SDS011;2210;51.938;8.488;2023-10-13T10:38:32;10.23;;;3.90;;
4391;SDS011;2210;51.938;8.488;2023-10-13T10:42:33;7.13;;;3.00;;
4391;SDS011;2210;51.938;8.488;2023-10-13T10:46:34;9.87;;;3.60;;
4391;SDS011;2210;51.938;8.488;2023-10-13T10:50:40;7.63;;;3.37;;
4391;SDS011;2210;51.938;8.488;2023-10-13T10:54:41;6.33;;;3.13;;
4391;SDS011;2210;51.938;8.488;2023-10-13T10:58:44;10.47;;;3.93;;
4391;SDS011;2210;51.938;8.488;2023-10-13T11:02:52;8.30;;;3.53;;
4391;SDS011;2210;51.938;8.488;2023-10-13T11:06:55;5.13;;;2.90;;
4391;SDS011;2210;51.938;8.488;2023-10-13T11:11:00;11.20;;;3.30;;
4391;SDS011;2210;51.938;8.488;2023-10-13T11:15:04;6.03;;;3.43;;
4391;SDS011;2210;51.938;8.488;2023-10-13T11:23:42;10.73;;;3.27;;
4391;SDS011;2210;51.938;8.488;2023-10-13T11:27:42;7.13;;;3.53;;
4391;SDS011;2210;51.938;8.488;2023-10-13T11:31:46;9.30;;;3.60;;
4391;SDS011;2210;51.938;8.488;2023-10-13T11:35:53;9.00;;;2.97;;
4391;SDS011;2210;51.938;8.488;2023-10-13T11:39:55;6.07;;;3.20;;
4391;SDS011;2210;51.938;8.488;2023-10-13T11:43:55;9.43;;;2.93;;
4391;SDS011;2210;51.938;8.488;2023-10-13T11:48:23;9.53;;;3.57;;
4391;SDS011;2210;51.938;8.488;2023-10-13T11:52:34;5.70;;;3.00;;
4391;SDS011;2210;51.938;8.488;2023-10-13T11:56:34;10.87;;;3.47;;
4391;SDS011;2210;51.938;8.488;2023-10-13T12:00:34;7.05;;;3.83;;
4391;SDS011;2210;51.938;8.488;2023-10-13T12:04:53;9.23;;;4.17;;
4391;SDS011;2210;51.938;8.488;2023-10-13T12:08:57;10.80;;;3.87;;
4391;SDS011;2210;51.938;8.488;2023-10-13T12:13:10;10.07;;;3.50;;
4391;SDS011;2210;51.938;8.488;2023-10-13T12:17:11;8.68;;;3.60;;
4391;SDS011;2210;51.938;8.488;2023-10-13T12:21:15;7.40;;;3.57;;
4391;SDS011;2210;51.938;8.488;2023-10-13T12:25:20;12.30;;;3.90;;
4391;SDS011;2210;51.938;8.488;2023-10-13T12:29:32;11.10;;;3.90;;
4391;SDS011;2210;51.938;8.488;2023-10-13T12:33:35;5.07;;;3.80;;
4391;SDS011;2210;51.938;8.488;2023-10-13T12:37:40;6.53;;;3.00;;
4391;SDS011;2210;51.938;8.488;2023-10-13T12:41:46;7.47;;;4.47;;
4391;SDS011;2210;51.938;8.488;2023-10-13T12:46:05;7.37;;;3.70;;
4391;SDS011;2210;51.938;8.488;2023-10-13T12:50:24;20.03;;;3.70;;
4391;SDS011;2210;51.938;8.488;2023-10-13T12:54:43;12.83;;;4.77;;
4391;SDS011;2210;51.938;8.488;2023-10-13T12:58:47;14.03;;;4.40;;
4391;SDS011;2210;51.938;8.488;2023-10-13T13:02:54;9.13;;;3.57;;
4391;SDS011;2210;51.938;8.488;2023-10-13T13:06:55;7.93;;;4.03;;
4391;SDS011;2210;51.938;8.488;2023-10-13T13:10:56;12.90;;;3.70;;
4391;SDS011;2210;51.938;8.488;2023-10-13T13:14:56;6.30;;;2.90;;
4391;SDS011;2210;51.938;8.488;2023-10-13T13:18:57;7.90;;;3.40;;
4391;SDS011;2210;51.938;8.488;2023-10-13T13:22:57;6.70;;;3.83;;
4391;SDS011;2210;51.938;8.488;2023-10-13T13:27:04;10.93;;;3.83;;
4391;SDS011;2210;51.938;8.488;2023-10-13T13:31:05;13.70;;;4.33;;
4391;SDS011;2210;51.938;8.488;2023-10-13T13:35:08;5.90;;;3.57;;
4391;SDS011;2210;51.938;8.488;2023-10-13T13:39:13;4.97;;;2.70;;
4391;SDS011;2210;51.938;8.488;2023-10-13T13:43:18;17.10;;;3.43;;
4391;SDS011;2210;51.938;8.488;2023-10-13T13:47:31;9.23;;;3.30;;
4391;SDS011;2210;51.938;8.488;2023-10-13T13:51:33;5.13;;;3.20;;
4391;SDS011;2210;51.938;8.488;2023-10-13T13:55:37;5.37;;;3.67;;
4391;SDS011;2210;51.938;8.488;2023-10-13T13:59:40;5.70;;;3.17;;
4391;SDS011;2210;51.938;8.488;2023-10-13T14:03:46;9.77;;;3.90;;
4391;SDS011;2210;51.938;8.488;2023-10-13T14:07:47;7.83;;;2.97;;
4391;SDS011;2210;51.938;8.488;2023-10-13T14:11:50;13.70;;;3.90;;
4391;SDS011;2210;51.938;8.488;2023-10-13T14:15:57;11.07;;;3.17;;
4391;SDS011;2210;51.938;8.488;2023-10-13T14:19:58;19.53;;;4.60;;
4391;SDS011;2210;51.938;8.488;2023-10-13T14:24:01;9.20;;;4.13;;
4391;SDS011;2210;51.938;8.488;2023-10-13T14:28:05;11.37;;;4.27;;
4391;SDS011;2210;51.938;8.488;2023-10-13T14:32:08;7.87;;;4.33;;
4391;SDS011;2210;51.938;8.488;2023-10-13T14:36:13;11.47;;;4.10;;
4391;SDS011;2210;51.938;8.488;2023-10-13T14:40:13;10.70;;;3.40;;
4391;SDS011;2210;51.938;8.488;2023-10-13T14:44:15;11.60;;;3.90;;
4391;SDS011;2210;51.938;8.488;2023-10-13T14:48:15;7.33;;;3.20;;
4391;SDS011;2210;51.938;8.488;2023-10-13T14:52:15;10.23;;;3.33;;
4391;SDS011;2210;51.938;8.488;2023-10-13T14:56:23;32.27;;;4.87;;
4391;SDS011;2210;51.938;8.488;2023-10-13T15:00:25;8.83;;;3.47;;
4391;SDS011;2210;51.938;8.488;2023-10-13T15:04:25;8.43;;;3.57;;
4391;SDS011;2210;51.938;8.488;2023-10-13T15:08:28;10.43;;;3.13;;
4391;SDS011;2210;51.938;8.488;2023-10-13T15:12:28;11.83;;;3.80;;
4391;SDS011;2210;51.938;8.488;2023-10-13T15:16:29;7.57;;;3.63;;
4391;SDS011;2210;51.938;8.488;2023-10-13T15:20:29;10.63;;;3.63;;
4391;SDS011;2210;51.938;8.488;2023-10-13T15:24:29;9.70;;;3.07;;
4391;SDS011;2210;51.938;8.488;2023-10-13T15:28:30;10.00;;;3.20;;
4391;SDS011;2210;51.938;8.488;2023-10-13T15:32:31;9.33;;;3.30;;
4391;SDS011;2210;51.938;8.488;2023-10-13T15:36:43;14.13;;;3.53;;
4391;SDS011;2210;51.938;8.488;2023-10-13T15:40:44;22.40;;;3.50;;
4391;SDS011;2210;51.938;8.488;2023-10-13T15:44:44;7.87;;;3.70;;
4391;SDS011;2210;51.938;8.488;2023-10-13T15:48:46;7.70;;;3.33;;
4391;SDS011;2210;51.938;8.488;2023-10-13T15:52:50;10.83;;;3.30;;
4391;SDS011;2210;51.938;8.488;2023-10-13T15:56:53;9.13;;;4.03;;
4391;SDS011;2210;51.938;8.488;2023-10-13T16:01:03;8.97;;;3.27;;
4391;SDS011;2210;51.938;8.488;2023-10-13T16:05:04;8.33;;;4.00;;
4391;SDS011;2210;51.938;8.488;2023-10-13T16:09:06;7.07;;;3.07;;
4391;SDS011;2210;51.938;8.488;2023-10-13T16:13:25;8.30;;;3.63;;
4391;SDS011;2210;51.938;8.488;2023-10-13T16:17:26;11.60;;;3.57;;
4391;SDS011;2210;51.938;8.488;2023-10-13T16:21:26;11.23;;;4.10;;
4391;SDS011;2210;51.938;8.488;2023-10-13T16:25:27;8.77;;;3.70;;
4391;SDS011;2210;51.938;8.488;2023-10-13T16:29:33;7.43;;;3.43;;
4391;SDS011;2210;51.938;8.488;2023-10-13T16:33:40;6.80;;;3.27;;
4391;SDS011;2210;51.938;8.488;2023-10-13T16:37:47;7.13;;;3.33;;
4391;SDS011;2210;51.938;8.488;2023-10-13T16:41:50;7.73;;;3.30;;
4391;SDS011;2210;51.938;8.488;2023-10-13T16:45:55;9.20;;;3.10;;
4391;SDS011;2210;51.938;8.488;2023-10-13T16:49:57;5.73;;;3.83;;
4391;SDS011;2210;51.938;8.488;2023-10-13T16:53:57;7.23;;;3.20;;
4391;SDS011;2210;51.938;8.488;2023-10-13T16:57:58;6.13;;;3.50;;
4391;SDS011;2210;51.938;8.488;2023-10-13T17:01:59;4.60;;;3.40;;
4391;SDS011;2210;51.938;8.488;2023-10-13T17:06:00;9.03;;;3.37;;
4391;SDS011;2210;51.938;8.488;2023-10-13T17:10:01;6.40;;;3.00;;
4391;SDS011;2210;51.938;8.488;2023-10-13T17:14:01;12.83;;;4.00;;
4391;SDS011;2210;51.938;8.488;2023-10-13T17:18:05;7.80;;;3.40;;
4391;SDS011;2210;51.938;8.488;2023-10-13T17:22:06;7.10;;;3.30;;
4391;SDS011;2210;51.938;8.488;2023-10-13T17:26:06;14.13;;;2.90;;
4391;SDS011;2210;51.938;8.488;2023-10-13T17:30:07;7.03;;;3.00;;
4391;SDS011;2210;51.938;8.488;2023-10-13T17:34:09;11.37;;;3.70;;
4391;SDS011;2210;51.938;8.488;2023-10-13T17:42:36;9.13;;;3.97;;
4391;SDS011;2210;51.938;8.488;2023-10-13T17:46:36;9.10;;;3.63;;
4391;SDS011;2210;51.938;8.488;2023-10-13T17:50:44;8.63;;;3.30;;
4391;SDS011;2210;51.938;8.488;2023-10-13T17:54:45;8.17;;;3.83;;
4391;SDS011;2210;51.938;8.488;2023-10-13T17:58:46;8.40;;;3.20;;
4391;SDS011;2210;51.938;8.488;2023-10-13T18:02:46;8.93;;;3.03;;
4391;SDS011;2210;51.938;8.488;2023-10-13T18:06:47;11.27;;;3.83;;
4391;SDS011;2210;51.938;8.488;2023-10-13T18:10:56;7.90;;;2.80;;
4391;SDS011;2210;51.938;8.488;2023-10-13T18:14:58;7.03;;;3.43;;
4391;SDS011;2210;51.938;8.488;2023-10-13T18:18:59;7.50;;;4.13;;
4391;SDS011;2210;51.938;8.488;2023-10-13T18:22:59;9.00;;;3.73;;
4391;SDS011;2210;51.938;8.488;2023-10-13T18:26:59;4.50;;;2.93;;
4391;SDS011;2210;51.938;8.488;2023-10-13T18:31:00;7.40;;;3.70;;
4391;SDS011;2210;51.938;8.488;2023-10-13T18:35:04;8.93;;;3.07;;
4391;SDS011;2210;51.938;8.488;2023-10-13T18:39:14;11.47;;;3.53;;
4391;SDS011;2210;51.938;8.488;2023-10-13T18:43:18;10.83;;;3.37;;
4391;SDS011;2210;51.938;8.488;2023-10-13T18:47:20;8.90;;;3.75;;
4391;SDS011;2210;51.938;8.488;2023-10-13T18:51:20;7.53;;;3.00;;
4391;SDS011;2210;51.938;8.488;2023-10-13T18:55:21;9.60;;;2.83;;
4391;SDS011;2210;51.938;8.488;2023-10-13T18:59:21;6.55;;;2.88;;
4391;SDS011;2210;51.938;8.488;2023-10-13T19:03:33;5.43;;;3.20;;
4391;SDS011;2210;51.938;8.488;2023-10-13T19:12:34;6.73;;;3.43;;
4391;SDS011;2210;51.938;8.488;2023-10-13T19:16:43;10.30;;;3.30;;
4391;SDS011;2210;51.938;8.488;2023-10-13T19:20:46;6.10;;;3.80;;
4391;SDS011;2210;51.938;8.488;2023-10-13T19:24:46;6.17;;;3.93;;
4391;SDS011;2210;51.938;8.488;2023-10-13T19:28:48;7.00;;;3.47;;
4391;SDS011;2210;51.938;8.488;2023-10-13T19:32:57;4.87;;;3.30;;
4391;SDS011;2210;51.938;8.488;2023-10-13T19:37:01;11.80;;;3.50;;
4391;SDS011;2210;51.938;8.488;2023-10-13T19:41:03;7.87;;;3.77;;
4391;SDS011;2210;51.938;8.488;2023-10-13T19:45:07;7.53;;;3.07;;
4391;SDS011;2210;51.938;8.488;2023-10-13T19:49:12;6.47;;;3.40;;
4391;SDS011;2210;51.938;8.488;2023-10-13T19:53:12;9.53;;;4.10;;
4391;SDS011;2210;51.938;8.488;2023-10-13T19:57:15;7.30;;;3.43;;
4391;SDS011;2210;51.938;8.488;2023-10-13T20:01:16;8.73;;;4.00;;
4391;SDS011;2210;51.938;8.488;2023-10-13T20:05:23;6.00;;;3.57;;
4391;SDS011;2210;51.938;8.488;2023-10-13T20:09:23;7.07;;;3.70;;
4391;SDS011;2210;51.938;8.488;2023-10-13T20:13:26;8.23;;;3.70;;
4391;SDS011;2210;51.938;8.488;2023-10-13T20:22:27;4.70;;;3.90;;
4391;SDS011;2210;51.938;8.488;2023-10-13T20:26:31;7.70;;;3.90;;
4391;SDS011;2210;51.938;8.488;2023-10-13T20:30:41;9.83;;;4.00;;
4391;SDS011;2210;51.938;8.488;2023-10-13T20:34:43;8.23;;;4.07;;
4391;SDS011;2210;51.938;8.488;2023-10-13T20:38:44;8.27;;;3.80;;
4391;SDS011;2210;51.938;8.488;2023-10-13T20:42:53;12.63;;;3.80;;
4391;SDS011;2210;51.938;8.488;2023-10-13T20:46:59;7.53;;;3.93;;
4391;SDS011;2210;51.938;8.488;2023-10-13T20:51:06;10.80;;;4.33;;
4391;SDS011;2210;51.938;8.488;2023-10-13T20:55:09;4.50;;;3.80;;
4391;SDS011;2210;51.938;8.488;2023-10-13T20:59:13;8.13;;;3.50;;
4391;SDS011;2210;51.938;8.488;2023-10-13T21:03:14;5.50;;;3.93;;
4391;SDS011;2210;51.938;8.488;2023-10-13T21:16:37;6.43;;;3.67;;
4391;SDS011;2210;51.938;8.488;2023-10-13T21:20:38;7.90;;;4.47;;
4391;SDS011;2210;51.938;8.488;2023-10-13T21:24:40;8.90;;;4.20;;
4391;SDS011;2210;51.938;8.488;2023-10-13T21:28:43;11.50;;;4.93;;
4391;SDS011;2210;51.938;8.488;2023-10-13T21:32:45;8.07;;;4.77;;
4391;SDS011;2210;51.938;8.488;2023-10-13T21:36:48;7.50;;;4.17;;
4391;SDS011;2210;51.938;8.488;2023-10-13T21:40:51;5.63;;;4.27;;
4391;SDS011;2210;51.938;8.488;2023-10-13T21:44:53;8.70;;;4.57;;
4391;SDS011;2210;51.938;8.488;2023-10-13T21:49:03;10.83;;;4.60;;
4391;SDS011;2210;51.938;8.488;2023-10-13T21:53:09;8.40;;;4.60;;
4391;SDS011;2210;51.938;8.488;2023-10-13T22:02:06;14.27;;;4.50;;
4391;SDS011;2210;51.938;8.488;2023-10-13T22:06:11;11.70;;;4.50;;
4391;SDS011;2210;51.938;8.488;2023-10-13T22:10:15;17.43;;;4.40;;
4391;SDS011;2210;51.938;8.488;2023-10-13T22:14:21;6.60;;;3.63;;
4391;SDS011;2210;51.938;8.488;2023-10-13T22:18:22;9.07;;;4.03;;
4391;SDS011;2210;51.938;8.488;2023-10-13T22:22:22;9.35;;;4.15;;
4391;SDS011;2210;51.938;8.488;2023-10-13T22:26:22;12.83;;;4.67;;
4391;SDS011;2210;51.938;8.488;2023-10-13T22:30:23;11.57;;;4.17;;
4391;SDS011;2210;51.938;8.488;2023-10-13T22:34:23;6.73;;;4.07;;
4391;SDS011;2210;51.938;8.488;2023-10-13T22:38:27;13.13;;;3.93;;
4391;SDS011;2210;51.938;8.488;2023-10-13T22:42:29;7.67;;;4.80;;
4391;SDS011;2210;51.938;8.488;2023-10-13T22:46:29;9.40;;;4.53;;
4391;SDS011;2210;51.938;8.488;2023-10-13T22:50:30;11.13;;;4.68;;
4391;SDS011;2210;51.938;8.488;2023-10-13T22:54:30;15.00;;;4.33;;
4391;SDS011;2210;51.938;8.488;2023-10-13T22:58:30;17.20;;;5.07;;
4391;SDS011;2210;51.938;8.488;2023-10-13T23:02:33;10.73;;;4.77;;
4391;SDS011;2210;51.938;8.488;2023-10-13T23:06:33;8.47;;;4.70;;
4391;SDS011;2210;51.938;8.488;2023-10-13T23:10:39;13.10;;;5.10;;
4391;SDS011;2210;51.938;8.488;2023-10-13T23:14:45;6.60;;;4.20;;
4391;SDS011;2210;51.938;8.488;2023-10-13T23:18:50;10.40;;;4.10;;
4391;SDS011;2210;51.938;8.488;2023-10-13T23:22:52;8.00;;;4.20;;
4391;SDS011;2210;51.938;8.488;2023-10-13T23:26:52;7.87;;;4.10;;
4391;SDS011;2210;51.938;8.488;2023-10-13T23:30:52;12.00;;;6.00;;
4391;SDS011;2210;51.938;8.488;2023-10-13T23:34:53;8.23;;;4.20;;
4391;SDS011;2210;51.938;8.488;2023-10-13T23:38:53;8.45;;;4.88;;
4391;SDS011;2210;51.938;8.488;2023-10-13T23:42:59;14.07;;;4.90;;
4391;SDS011;2210;51.938;8.488;2023-10-13T23:47:06;8.37;;;4.80;;
4391;SDS011;2210;51.938;8.488;2023-10-13T23:56:13;6.97;;;4.00;;
